Time;durP1;ratioP1;P1;durP2;ratioP2;P2;SDS_P1;SDS_P2;PMS_P1;PMS_P2;Temp;Humidity;BMP_temperature;BMP_pressure;BME280_temperature;BME280_humidity;BME280_pressure;Samples;Min_cycle;Max_cycle;Signal;HPM_P1;HPM_P2
2022/04/27 00:01:35;;;;;;;2.80;1.77;;;;;;;;;;337894;155;857685;-59
2022/04/27 00:02:41;;;;;;;2.26;1.90;;;;;;;;;;347606;153;857252;-60
2022/04/27 00:03:42;;;;;;;2.79;1.96;;;;;;;;;;348269;153;857808;-58
2022/04/27 00:04:45;;;;;;;3.22;2.07;;;;;;;;;;340870;156;865673;-58
2022/04/27 00:05:52;;;;;;;3.37;2.19;;;;;;;;;;338149;156;857237;-57
2022/04/27 00:06:54;;;;;;;2.87;2.18;;;;;;;;;;338506;156;857876;-59
2022/04/27 00:07:58;;;;;;;2.51;2.11;;;;;;;;;;346193;153;857208;-59
2022/04/27 00:09:02;;;;;;;3.04;1.99;;;;;;;;;;348777;153;857702;-57
2022/04/27 00:10:07;;;;;;;4.28;2.26;;;;;;;;;;345774;153;857633;-57
2022/04/27 00:11:09;;;;;;;3.44;1.82;;;;;;;;;;345843;153;858139;-58
2022/04/27 00:12:13;;;;;;;2.79;2.26;;;;;;;;;;346931;153;857314;-58
2022/04/27 00:13:16;;;;;;;3.39;2.31;;;;;;;;;;345720;153;857208;-58
2022/04/27 00:14:20;;;;;;;2.84;1.89;;;;;;;;;;340143;155;859215;-59
2022/04/27 00:15:26;;;;;;;2.90;2.17;;;;;;;;;;340307;156;857240;-59
2022/04/27 00:16:28;;;;;;;2.94;2.16;;;;;;;;;;342619;156;857622;-59
2022/04/27 00:17:30;;;;;;;4.31;2.46;;;;;;;;;;342180;155;860050;-57
2022/04/27 00:18:32;;;;;;;4.17;2.29;;;;;;;;;;338060;157;864790;-58
2022/04/27 00:19:35;;;;;;;2.45;2.17;;;;;;;;;;343206;156;857274;-58
2022/04/27 00:20:38;;;;;;;2.34;2.06;;;;;;;;;;342218;153;857746;-58
2022/04/27 00:21:42;;;;;;;2.83;2.39;;;;;;;;;;338417;156;858332;-57
2022/04/27 00:22:44;;;;;;;3.84;2.23;;;;;;;;;;345944;153;865158;-58
2022/04/27 00:23:48;;;;;;;2.16;1.96;;;;;;;;;;346091;153;858745;-58
2022/04/27 00:24:56;;;;;;;3.52;2.23;;;;;;;;;;345393;153;859034;-58
2022/04/27 00:25:59;;;;;;;3.43;2.09;;;;;;;;;;347696;153;857596;-58
2022/04/27 00:27:03;;;;;;;2.67;2.05;;;;;;;;;;344425;153;859542;-58
2022/04/27 00:28:05;;;;;;;4.89;2.21;;;;;;;;;;346449;153;864769;-58
2022/04/27 00:29:09;;;;;;;3.21;2.09;;;;;;;;;;340658;156;866556;-58
2022/04/27 00:30:12;;;;;;;5.02;2.19;;;;;;;;;;335129;156;857395;-59
2022/04/27 00:31:17;;;;;;;3.53;2.04;;;;;;;;;;342206;155;865389;-59
2022/04/27 00:32:23;;;;;;;4.53;2.21;;;;;;;;;;345056;155;866591;-59
2022/04/27 00:33:27;;;;;;;5.26;2.27;;;;;;;;;;342774;153;857628;-59
2022/04/27 00:34:31;;;;;;;5.24;2.17;;;;;;;;;;348811;153;857225;-59
2022/04/27 00:35:32;;;;;;;2.79;2.10;;;;;;;;;;346208;153;865938;-59
2022/04/27 00:36:35;;;;;;;3.87;2.55;;;;;;;;;;346975;153;865614;-60
2022/04/27 00:37:44;;;;;;;6.57;2.28;;;;;;;;;;345824;153;857674;-60
2022/04/27 00:38:46;;;;;;;4.46;2.68;;;;;;;;;;341763;156;858231;-59
2022/04/27 00:39:50;;;;;;;3.19;2.18;;;;;;;;;;347871;153;857398;-59
2022/04/27 00:40:53;;;;;;;4.39;2.05;;;;;;;;;;346350;153;857322;-58
2022/04/27 00:42:00;;;;;;;3.49;2.16;;;;;;;;;;346153;154;864829;-58
2022/04/27 00:43:05;;;;;;;2.80;2.34;;;;;;;;;;347689;153;857329;-59
2022/04/27 00:44:11;;;;;;;4.59;2.34;;;;;;;;;;340249;156;858024;-58
2022/04/27 00:45:13;;;;;;;3.35;2.29;;;;;;;;;;347202;153;857757;-59
2022/04/27 00:46:19;;;;;;;5.47;2.25;;;;;;;;;;346157;153;858660;-58
2022/04/27 00:47:21;;;;;;;6.92;2.29;;;;;;;;;;345826;153;857631;-59
2022/04/27 00:48:23;;;;;;;3.91;2.45;;;;;;;;;;339995;156;859415;-58
2022/04/27 00:49:26;;;;;;;3.26;2.41;;;;;;;;;;343258;153;857600;-58
2022/04/27 00:50:30;;;;;;;3.88;2.36;;;;;;;;;;348750;153;857466;-58
2022/04/27 00:51:33;;;;;;;3.01;2.04;;;;;;;;;;347307;153;859518;-58
2022/04/27 00:52:35;;;;;;;5.57;2.29;;;;;;;;;;345555;153;859083;-58
2022/04/27 00:53:40;;;;;;;3.65;2.47;;;;;;;;;;346444;153;857169;-58
2022/04/27 00:54:44;;;;;;;4.81;2.45;;;;;;;;;;347705;153;857219;-58
2022/04/27 00:55:46;;;;;;;2.47;2.11;;;;;;;;;;348921;153;858520;-60
2022/04/27 00:56:53;;;;;;;3.10;2.17;;;;;;;;;;347795;153;864645;-58
2022/04/27 00:57:59;;;;;;;4.43;2.11;;;;;;;;;;341732;156;859433;-58
2022/04/27 00:59:01;;;;;;;3.47;2.02;;;;;;;;;;343139;153;857746;-58
2022/04/27 01:00:12;;;;;;;3.57;2.32;;;;;;;22.71;100.00;112913.89;339772;156;857708;-57
2022/04/27 01:01:12;;;;;;;3.46;2.06;;;;;;;;;;338428;153;857423;-58
2022/04/27 01:02:16;;;;;;;3.84;2.11;;;;;;;;;;349526;153;858132;-58
2022/04/27 01:03:19;;;;;;;2.87;1.81;;;;;;;;;;340290;155;864742;-57
2022/04/27 01:04:21;;;;;;;3.03;1.89;;;;;;;;;;333778;159;865795;-59
2022/04/27 01:05:23;;;;;;;3.13;1.79;;;;;;;;;;329978;159;857279;-58
2022/04/27 01:06:26;;;;;;;5.31;2.26;;;;;;;;;;342414;154;857242;-58
2022/04/27 01:07:32;;;;;;;2.21;1.98;;;;;;;;;;340628;156;857431;-57
2022/04/27 01:08:34;;;;;;;3.47;2.11;;;;;;;;;;341397;154;857339;-59
2022/04/27 01:09:36;;;;;;;3.00;1.87;;;;;;;;;;341209;155;860997;-59
2022/04/27 01:10:38;;;;;;;4.99;1.99;;;;;;;;;;343717;155;864415;-59
2022/04/27 01:11:43;;;;;;;2.80;1.99;;;;;;;;;;345467;153;857216;-59
2022/04/27 01:12:45;;;;;;;3.66;2.23;;;;;;;;;;346605;153;866215;-58
2022/04/27 01:13:48;;;;;;;2.63;2.01;;;;;;;;;;346890;153;857550;-60
2022/04/27 01:14:51;;;;;;;4.86;2.27;;;;;;;;;;346701;153;857250;-58
2022/04/27 01:15:52;;;;;;;6.45;1.98;;;;;;;;;;342022;153;858991;-58
2022/04/27 01:16:55;;;;;;;3.57;2.07;;;;;;;;;;340925;155;864836;-58
2022/04/27 01:18:12;;;;;;;;;;;;;;;;;;;;;
2022/04/27 01:19:01;;;;;;;3.35;1.84;;;;;;;;;;342925;153;857367;-58
2022/04/27 01:20:04;;;;;;;2.31;1.98;;;;;;;;;;346929;153;859832;-58
2022/04/27 01:21:06;;;;;;;3.58;1.99;;;;;;;;;;347049;153;857122;-58
2022/04/27 01:22:08;;;;;;;2.51;1.82;;;;;;;;;;348873;153;864773;-58
2022/04/27 01:23:12;;;;;;;3.67;1.86;;;;;;;;;;345931;153;857281;-58
2022/04/27 01:24:16;;;;;;;5.82;2.25;;;;;;;;;;347644;153;857190;-59
2022/04/27 01:25:17;;;;;;;3.75;1.93;;;;;;;;;;346972;153;857171;-59
2022/04/27 01:26:19;;;;;;;2.08;1.85;;;;;;;;;;346262;153;857316;-58
2022/04/27 01:27:21;;;;;;;2.67;2.13;;;;;;;;;;340876;155;857754;-58
2022/04/27 01:28:27;;;;;;;8.34;2.39;;;;;;;;;;334698;158;860432;-59
2022/04/27 01:29:29;;;;;;;3.13;1.98;;;;;;;;;;342050;153;857575;-58
2022/04/27 01:30:31;;;;;;;3.30;2.09;;;;;;;;;;344624;153;857878;-59
2022/04/27 01:31:34;;;;;;;4.12;2.13;;;;;;;;;;346471;153;857235;-59
2022/04/27 01:32:36;;;;;;;3.81;2.23;;;;;;;;;;347010;153;864780;-59
2022/04/27 01:33:38;;;;;;;2.91;2.07;;;;;;;;;;340667;156;857360;-57
2022/04/27 01:34:42;;;;;;;3.27;1.93;;;;;;;;;;335743;156;857323;-58
2022/04/27 01:35:46;;;;;;;3.16;2.10;;;;;;;;;;340742;153;857713;-59
2022/04/27 01:36:48;;;;;;;3.66;2.13;;;;;;;;;;347014;153;857205;-58
2022/04/27 01:38:02;;;;;;;3.66;2.13;;;;;;;;;;340397;156;864730;-58
2022/04/27 01:39:06;;;;;;;3.74;2.37;;;;;;;;;;339572;156;857725;-59
2022/04/27 01:40:09;;;;;;;2.39;2.07;;;;;;;;;;338924;156;858622;-58
2022/04/27 01:41:11;;;;;;;4.90;2.27;;;;;;;;;;338495;156;857190;-59
2022/04/27 01:42:15;;;;;;;3.04;2.53;;;;;;;;;;331794;159;857638;-58
2022/04/27 01:43:19;;;;;;;3.92;2.29;;;;;;;;;;340527;156;857217;-58
2022/04/27 01:44:21;;;;;;;3.99;2.14;;;;;;;;;;346170;153;857297;-58
2022/04/27 01:45:23;;;;;;;2.58;1.81;;;;;;;;;;346123;153;859322;-58
2022/04/27 01:46:27;;;;;;;5.07;2.23;;;;;;;;;;346816;153;857251;-58
2022/04/27 01:47:29;;;;;;;2.67;2.12;;;;;;;;;;341850;156;857103;-58
2022/04/27 01:48:32;;;;;;;5.23;2.27;;;;;;;;;;339711;153;858684;-59
2022/04/27 01:49:34;;;;;;;3.78;2.02;;;;;;;;;;346926;153;857673;-60
2022/04/27 01:50:36;;;;;;;2.87;2.23;;;;;;;;;;345964;153;857355;-58
2022/04/27 01:54:21;;;;;;;4.16;1.87;;;;;;;;;;346460;153;859559;-59
2022/04/27 01:55:23;;;;;;;4.31;2.19;;;;;;;;;;346852;153;858978;-58
2022/04/27 01:56:25;;;;;;;4.70;2.13;;;;;;;;;;348641;153;865591;-58
2022/04/27 01:57:27;;;;;;;2.28;1.99;;;;;;;;;;346486;153;857221;-59
2022/04/27 01:58:29;;;;;;;3.65;2.33;;;;;;;;;;348562;153;864628;-58
2022/04/27 01:59:31;;;;;;;4.05;2.25;;;;;;;;;;348726;153;859027;-58
2022/04/27 02:00:33;;;;;;;3.09;2.29;;;;;;;;;;347422;153;857410;-58
2022/04/27 02:01:35;;;;;;;3.81;1.91;;;;;;;;;;345672;153;857304;-58
2022/04/27 02:02:37;;;;;;;2.84;2.03;;;;;;;;;;348115;153;857166;-59
2022/04/27 02:03:39;;;;;;;3.91;2.44;;;;;;;;;;342466;154;858509;-59
2022/04/27 02:04:42;;;;;;;3.23;2.15;;;;;;;;;;343822;154;865011;-59
2022/04/27 02:05:45;;;;;;;4.99;2.18;;;;;;;;;;347697;153;858138;-59
2022/04/27 02:06:47;;;;;;;5.65;2.29;;;;;;;;;;345830;153;857316;-57
2022/04/27 02:07:49;;;;;;;4.33;2.28;;;;;;;;;;345437;153;864726;-58
2022/04/27 02:08:51;;;;;;;2.53;2.08;;;;;;;;;;348434;153;858057;-58
2022/04/27 02:09:53;;;;;;;4.22;2.41;;;;;;;;;;348441;153;859270;-58
2022/04/27 02:10:56;;;;;;;3.99;2.31;;;;;;;;;;346050;153;857362;-59
2022/04/27 02:11:58;;;;;;;3.39;2.20;;;;;;;;;;347049;153;857247;-59
2022/04/27 02:13:02;;;;;;;4.14;2.23;;;;;;;;;;345534;153;857331;-59
2022/04/27 02:14:03;;;;;;;2.27;1.45;;;;;;;;;;344891;153;857369;-59
2022/04/27 02:15:06;;;;;;;3.30;2.31;;;;;;;;;;347637;153;858427;-59
2022/04/27 02:16:09;;;;;;;5.39;2.43;;;;;;;;;;345803;153;864734;-56
2022/04/27 02:17:12;;;;;;;4.39;2.33;;;;;;;;;;347164;153;856848;-58
2022/04/27 02:18:14;;;;;;;6.27;2.21;;;;;;;;;;346501;153;859616;-59
2022/04/27 02:19:16;;;;;;;3.00;2.41;;;;;;;;;;348242;153;857225;-57
2022/04/27 02:20:18;;;;;;;3.01;2.29;;;;;;;;;;348066;153;857357;-58
2022/04/27 02:21:20;;;;;;;3.73;2.44;;;;;;;;;;347170;153;858966;-58
2022/04/27 02:22:23;;;;;;;5.74;2.51;;;;;;;;;;348474;153;864883;-58
2022/04/27 02:23:25;;;;;;;3.31;2.05;;;;;;;;;;347992;153;858068;-58
2022/04/27 02:24:30;;;;;;;2.31;1.95;;;;;;;;;;346432;153;857348;-58
2022/04/27 02:25:32;;;;;;;7.46;2.32;;;;;;;;;;344847;153;857206;-58
2022/04/27 02:26:34;;;;;;;3.42;2.35;;;;;;;;;;345673;153;858994;-58
2022/04/27 02:27:36;;;;;;;5.03;2.36;;;;;;;;;;346637;153;858779;-59
2022/04/27 02:28:38;;;;;;;3.06;2.53;;;;;;;;;;340585;155;857203;-58
2022/04/27 02:29:42;;;;;;;5.31;2.55;;;;;;;;;;338577;156;857286;-58
2022/04/27 02:30:44;;;;;;;6.14;2.05;;;;;;;;;;337380;157;857260;-58
2022/04/27 02:31:48;;;;;;;3.18;2.30;;;;;;;;;;337181;156;865385;-57
2022/04/27 02:32:50;;;;;;;4.08;2.34;;;;;;;;;;347267;153;857618;-58
2022/04/27 02:33:54;;;;;;;6.78;2.51;;;;;;;;;;346588;153;857287;-57
2022/04/27 02:34:57;;;;;;;5.53;2.42;;;;;;;;;;344224;154;857668;-59
2022/04/27 02:36:00;;;;;;;6.13;2.63;;;;;;;;;;344778;153;865534;-59
2022/04/27 02:37:03;;;;;;;5.99;2.38;;;;;;;;;;346837;153;864804;-59
2022/04/27 02:38:06;;;;;;;5.54;2.49;;;;;;;;;;345322;153;857150;-58
2022/04/27 02:39:08;;;;;;;4.85;2.72;;;;;;;;;;345099;153;857203;-58
2022/04/27 02:40:13;;;;;;;5.29;2.45;;;;;;;;;;347596;153;857236;-59
2022/04/27 02:41:18;;;;;;;7.51;2.74;;;;;;;;;;345587;153;857688;-58
2022/04/27 02:42:20;;;;;;;3.12;1.99;;;;;;;;;;344287;153;858888;-58
2022/04/27 02:43:22;;;;;;;4.08;2.89;;;;;;;;;;346515;153;865954;-59
2022/04/27 02:44:24;;;;;;;3.36;2.29;;;;;;;;;;339252;155;857288;-59
2022/04/27 02:45:28;;;;;;;4.62;2.65;;;;;;;;;;338835;156;857582;-59
2022/04/27 02:46:31;;;;;;;4.71;2.82;;;;;;;;;;346480;153;857747;-59
2022/04/27 02:47:34;;;;;;;3.41;2.53;;;;;;;;;;346310;153;856594;-59
2022/04/27 02:51:48;;;;;;;3.53;2.44;;;;;;;;;;347289;153;857820;-59
2022/04/27 02:52:22;;;;;;;3.99;2.49;;;;;;;;;;345262;153;864793;-59
2022/04/27 02:53:24;;;;;;;4.35;2.82;;;;;;;;;;345394;153;857205;-59
2022/04/27 02:54:26;;;;;;;6.70;2.77;;;;;;;;;;346282;153;857136;-59
2022/04/27 02:55:31;;;;;;;4.19;2.67;;;;;;;;;;346067;153;864803;-58
2022/04/27 02:56:35;;;;;;;5.18;2.86;;;;;;;;;;338191;156;856080;-58
2022/04/27 02:57:37;;;;;;;7.66;3.12;;;;;;;;;;345535;153;857587;-58
2022/04/27 02:58:39;;;;;;;4.78;2.79;;;;;;;;;;348882;153;857184;-58
2022/04/27 02:59:41;;;;;;;4.75;2.61;;;;;;;;;;341269;156;857287;-58
2022/04/27 03:00:46;;;;;;;7.31;2.89;;;;;;;;;;342638;153;857229;-58
2022/04/27 03:01:48;;;;;;;3.97;2.41;;;;;;;;;;348220;153;857716;-58
2022/04/27 03:02:50;;;;;;;4.77;2.91;;;;;;;;;;344282;153;864833;-58
2022/04/27 03:03:53;;;;;;;3.77;2.63;;;;;;;;;;344481;156;857225;-57
2022/04/27 03:04:55;;;;;;;4.83;2.81;;;;;;;;;;341622;156;857590;-57
2022/04/27 03:05:58;;;;;;;5.82;3.23;;;;;;;;;;341273;156;857242;-60
2022/04/27 03:07:00;;;;;;;5.47;3.03;;;;;;;;;;335820;156;864823;-61
2022/04/27 03:08:01;;;;;;;7.68;2.99;;;;;;;;;;340391;156;857375;-60
2022/04/27 03:09:02;;;;;;;5.57;3.14;;;;;;;;;;342776;156;865564;-59
2022/04/27 03:10:05;;;;;;;5.87;3.03;;;;;;;;;;339608;156;858186;-60
2022/04/27 03:11:06;;;;;;;5.34;2.73;;;;;;;;;;339296;156;858369;-60
2022/04/27 03:12:08;;;;;;;3.24;2.62;;;;;;;;;;341071;156;858796;-59
2022/04/27 03:13:10;;;;;;;6.67;3.29;;;;;;;;;;341075;156;857428;-58
2022/04/27 03:14:11;;;;;;;4.11;2.66;;;;;;;;;;338354;156;857287;-59
2022/04/27 03:15:13;;;;;;;6.82;2.94;;;;;;;;;;338486;156;857212;-59
2022/04/27 03:16:15;;;;;;;4.79;2.92;;;;;;;;;;341305;156;857262;-58
2022/04/27 03:17:17;;;;;;;4.96;2.51;;;;;;;;;;340988;156;864927;-59
2022/04/27 03:18:22;;;;;;;5.27;2.71;;;;;;;;;;341302;156;857204;-59
2022/04/27 03:19:22;;;;;;;4.21;2.28;;;;;;;;;;340042;156;859292;-59
2022/04/27 03:20:24;;;;;;;4.62;2.17;;;;;;;;;;342325;156;857211;-59
2022/04/27 03:21:28;;;;;;;6.45;2.74;;;;;;;;;;335476;159;857142;-59
2022/04/27 03:22:29;;;;;;;5.36;2.98;;;;;;;;;;329813;162;865349;-59
2022/04/27 03:23:30;;;;;;;3.66;2.76;;;;;;;;;;335400;159;860365;-59
2022/04/27 03:24:32;;;;;;;5.78;2.83;;;;;;;;;;335497;159;857730;-58
2022/04/27 03:25:34;;;;;;;4.80;3.10;;;;;;;;;;335547;159;857203;-59
2022/04/27 03:26:35;;;;;;;5.57;3.08;;;;;;;;;;328385;161;857139;-59
2022/04/27 03:27:37;;;;;;;3.76;2.65;;;;;;;;;;335398;159;857322;-58
2022/04/27 03:28:38;;;;;;;4.79;3.29;;;;;;;;;;331360;162;857328;-58
2022/04/27 03:29:40;;;;;;;4.66;2.84;;;;;;;;;;326525;162;859336;-61
2022/04/27 03:30:42;;;;;;;3.68;2.74;;;;;;;;;;331060;160;858257;-57
2022/04/27 03:31:43;;;;;;;4.94;3.18;;;;;;;;;;330152;160;858176;-58
2022/04/27 03:32:45;;;;;;;5.87;2.59;;;;;;;;;;330187;160;866708;-58
2022/04/27 03:33:46;;;;;;;3.68;2.11;;;;;;;;;;331555;160;857463;-58
2022/04/27 03:34:48;;;;;;;4.67;2.94;;;;;;;;;;333734;160;860612;-58
2022/04/27 03:35:49;;;;;;;4.06;2.99;;;;;;;;;;333136;160;863668;-58
2022/04/27 03:36:51;;;;;;;4.53;2.78;;;;;;;;;;334161;160;857278;-58
2022/04/27 03:37:52;;;;;;;4.01;3.00;;;;;;;;;;333537;160;857237;-58
2022/04/27 03:38:54;;;;;;;3.64;2.74;;;;;;;;;;334716;159;857117;-58
2022/04/27 03:39:55;;;;;;;3.99;2.91;;;;;;;;;;333238;160;857214;-59
2022/04/27 03:40:57;;;;;;;6.93;2.67;;;;;;;;;;334067;160;857157;-58
2022/04/27 03:41:58;;;;;;;2.91;2.36;;;;;;;;;;332631;160;857414;-59
2022/04/27 03:43:00;;;;;;;5.01;2.57;;;;;;;;;;333233;160;857765;-57
2022/04/27 03:44:02;;;;;;;6.69;2.72;;;;;;;;;;332334;160;866618;-59
2022/04/27 03:45:04;;;;;;;5.95;2.99;;;;;;;;;;338886;156;866110;-59
2022/04/27 03:46:06;;;;;;;5.81;3.10;;;;;;;;;;339879;156;864769;-58
2022/04/27 03:47:07;;;;;;;4.82;3.25;;;;;;;;;;340997;156;858640;-58
2022/04/27 03:48:09;;;;;;;6.69;2.67;;;;;;;;;;340039;156;863625;-58
2022/04/27 03:49:11;;;;;;;6.56;3.27;;;;;;;;;;342561;156;858547;-57
2022/04/27 03:50:13;;;;;;;4.92;2.99;;;;;;;;;;341010;156;856105;-58
2022/04/27 03:51:15;;;;;;;3.64;2.68;;;;;;;;;;339557;156;863926;-58
2022/04/27 03:52:16;;;;;;;3.71;2.41;;;;;;;;;;340065;156;863616;-58
2022/04/27 03:53:18;;;;;;;4.16;3.24;;;;;;;;;;339017;156;856069;-58
2022/04/27 03:54:19;;;;;;;5.95;3.16;;;;;;;;;;338399;156;856087;-58
2022/04/27 03:55:21;;;;;;;4.70;2.95;;;;;;;;;;339860;156;856198;-58
2022/04/27 03:56:22;;;;;;;4.41;2.95;;;;;;;;;;342075;156;856051;-59
2022/04/27 03:57:23;;;;;;;5.09;3.01;;;;;;;;;;339470;156;856167;-58
2022/04/27 03:58:25;;;;;;;5.23;2.86;;;;;;;;;;339656;156;856026;-58
2022/04/27 03:59:26;;;;;;;5.62;2.84;;;;;;;;;;340153;156;856023;-59
2022/04/27 04:00:28;;;;;;;4.79;3.05;;;;;;;;;;340341;156;856122;-59
2022/04/27 04:01:30;;;;;;;4.66;3.09;;;;;;;;;;340768;156;856066;-58
2022/04/27 04:04:24;;;;;;;4.17;2.45;;;;;;;9.12;70.91;99996.61;374758;142;881214;-59
2022/04/27 04:05:26;;;;;;;2.56;2.24;;;;;;;9.10;70.74;100002.66;367197;144;858597;-58
2022/04/27 04:06:28;;;;;;;2.65;2.20;;;;;;;9.13;70.33;100000.91;367259;144;857868;-59
2022/04/27 04:07:30;;;;;;;2.56;2.11;;;;;;;9.17;70.37;100007.80;366144;144;858231;-58
2022/04/27 04:08:31;;;;;;;4.26;1.90;;;;;;;9.25;70.47;100006.92;366443;144;865198;-60
2022/04/27 04:09:33;;;;;;;4.20;2.07;;;;;;;9.32;69.87;100013.80;366105;144;865459;-58
2022/04/27 04:10:35;;;;;;;3.96;1.73;;;;;;;9.38;69.50;100008.62;367001;144;858660;-58
2022/04/27 04:11:37;;;;;;;3.61;2.10;;;;;;;9.48;69.29;100015.48;367174;144;865394;-58
2022/04/27 04:12:39;;;;;;;3.87;2.06;;;;;;;9.58;69.11;100018.08;371220;144;860968;-58
2022/04/27 04:13:40;;;;;;;4.39;1.69;;;;;;;9.63;68.89;100021.52;371134;144;864895;-58
2022/04/27 04:14:42;;;;;;;2.37;2.04;;;;;;;9.65;68.43;100019.78;368012;144;866228;-58
2022/04/27 04:15:44;;;;;;;2.90;1.89;;;;;;;9.69;68.32;100013.73;367931;144;864867;-58
2022/04/27 04:16:46;;;;;;;2.42;1.93;;;;;;;9.71;68.05;100022.34;366219;144;864504;-59
2022/04/27 04:17:47;;;;;;;2.73;1.88;;;;;;;9.74;68.16;100017.16;367157;144;858274;-58
2022/04/27 04:18:49;;;;;;;6.23;2.33;;;;;;;9.77;67.93;100017.16;370157;144;865797;-58
2022/04/27 04:19:51;;;;;;;3.39;2.51;;;;;;;9.78;67.74;100024.05;366258;144;865254;-58
2022/04/27 04:20:53;;;;;;;3.35;2.13;;;;;;;9.80;67.69;100008.50;366408;144;865987;-57
2022/04/27 04:21:55;;;;;;;2.63;1.99;;;;;;;9.83;67.71;100018.00;366640;144;857700;-58
2022/04/27 04:22:57;;;;;;;2.49;2.03;;;;;;;9.84;67.33;100009.38;360664;147;864486;-58
2022/04/27 04:23:59;;;;;;;3.14;2.19;;;;;;;;;;364720;147;858964;-58
2022/04/27 04:29:01;;;;;;;3.11;2.04;;;;;;;;;;364087;147;858818;-59
2022/04/27 04:30:03;;;;;;;3.04;1.84;;;;;;;;;;364380;147;865582;-58
2022/04/27 04:31:05;;;;;;;2.73;2.36;;;;;;;;;;363525;147;864473;-58
2022/04/27 04:32:07;;;;;;;4.56;2.20;;;;;;;;;;364687;147;857256;-58
2022/04/27 04:33:08;;;;;;;5.62;2.35;;;;;;;;;;364169;147;864737;-58
2022/04/27 04:34:10;;;;;;;2.74;2.11;;;;;;;;;;364041;147;858627;-58
2022/04/27 04:35:12;;;;;;;3.96;2.11;;;;;;;;;;364652;147;864555;-57
2022/04/27 04:36:13;;;;;;;2.44;2.24;;;;;;;;;;363909;147;864600;-58
2022/04/27 04:37:15;;;;;;;5.51;2.03;;;;;;;;;;363755;147;864999;-58
2022/04/27 04:38:16;;;;;;;6.10;1.99;;;;;;;;;;362845;147;857300;-59
2022/04/27 04:39:18;;;;;;;4.44;2.41;;;;;;;;;;363544;147;857267;-59
2022/04/27 04:40:20;;;;;;;3.35;2.02;;;;;;;;;;365115;147;857287;-59
2022/04/27 04:41:22;;;;;;;4.90;2.59;;;;;;;;;;360277;147;864692;-58
2022/04/27 04:42:23;;;;;;;3.69;2.09;;;;;;;;;;362822;146;857207;-61
2022/04/27 04:43:25;;;;;;;2.84;2.09;;;;;;;;;;362554;147;864737;-59
2022/04/27 04:44:26;;;;;;;2.35;1.86;;;;;;;;;;363717;147;857706;-58
2022/04/27 04:45:28;;;;;;;3.87;2.16;;;;;;;;;;363994;147;858907;-59
2022/04/27 04:46:29;;;;;;;3.81;2.06;;;;;;;;;;364552;147;859391;-58
2022/04/27 04:47:31;;;;;;;4.67;2.25;;;;;;;;;;365437;147;857994;-58
2022/04/27 04:48:32;;;;;;;3.16;2.09;;;;;;;;;;363410;147;857281;-58
2022/04/27 04:49:34;;;;;;;2.24;2.02;;;;;;;;;;355040;150;858734;-59
2022/04/27 04:50:36;;;;;;;6.95;2.59;;;;;;;;;;354699;150;865211;-58
2022/04/27 04:51:38;;;;;;;5.78;2.27;;;;;;;;;;364437;147;859353;-58
2022/04/27 04:52:40;;;;;;;3.30;2.35;;;;;;;;;;361814;147;865690;-58
2022/04/27 04:53:41;;;;;;;2.44;2.16;;;;;;;;;;363312;147;866227;-58
2022/04/27 04:54:43;;;;;;;5.28;2.71;;;;;;;;;;360149;147;857914;-58
2022/04/27 04:55:44;;;;;;;2.79;2.10;;;;;;;;;;365531;147;865532;-57
2022/04/27 04:56:46;;;;;;;2.69;2.29;;;;;;;;;;362747;147;859289;-58
2022/04/27 04:57:48;;;;;;;3.82;2.61;;;;;;;;;;364398;147;857431;-57
2022/04/27 04:58:49;;;;;;;2.71;2.08;;;;;;;;;;363139;147;865761;-58
2022/04/27 04:59:51;;;;;;;4.20;2.06;;;;;;;;;;363397;147;858475;-59
2022/04/27 05:00:52;;;;;;;2.55;2.19;;;;;;;;;;360616;147;859521;-58
2022/04/27 05:01:54;;;;;;;3.49;2.13;;;;;;;;;;362723;147;858092;-58
2022/04/27 05:02:56;;;;;;;2.64;2.11;;;;;;;;;;360560;147;864144;-59
2022/04/27 05:04:00;;;;;;;2.34;2.14;;;;;;;;;;361853;148;864524;-58
2022/04/27 05:05:05;;;;;;;3.50;2.05;;;;;;;;;;359385;147;858739;-56
2022/04/27 05:06:08;;;;;;;2.78;2.20;;;;;;;;;;363353;147;860359;-62
2022/04/27 05:07:10;;;;;;;4.00;2.22;;;;;;;;;;362428;147;859274;-58
2022/04/27 05:08:11;;;;;;;3.30;2.04;;;;;;;;;;359448;147;857217;-59
2022/04/27 05:09:13;;;;;;;5.04;2.36;;;;;;;;;;362916;147;857649;-59
2022/04/27 05:10:14;;;;;;;3.61;2.29;;;;;;;;;;359053;147;864691;-59
2022/04/27 05:11:16;;;;;;;2.59;2.04;;;;;;;;;;361695;147;864781;-57
2022/04/27 05:12:18;;;;;;;3.39;2.13;;;;;;;;;;362456;147;857225;-57
2022/04/27 05:13:19;;;;;;;2.53;2.12;;;;;;;;;;361472;147;857172;-58
2022/04/27 05:14:21;;;;;;;3.10;2.54;;;;;;;;;;361653;147;857616;-57
2022/04/27 05:15:22;;;;;;;4.61;2.29;;;;;;;;;;362166;147;857456;-56
2022/04/27 05:16:25;;;;;;;2.56;1.99;;;;;;;;;;364350;147;857271;-57
2022/04/27 05:17:27;;;;;;;2.91;2.10;;;;;;;;;;363475;147;858884;-57
2022/04/27 05:18:28;;;;;;;3.05;1.99;;;;;;;;;;363809;147;857129;-59
2022/04/27 05:19:30;;;;;;;3.68;2.19;;;;;;;;;;362915;147;860787;-57
2022/04/27 05:20:32;;;;;;;3.01;2.42;;;;;;;;;;358496;149;864531;-58
2022/04/27 05:21:33;;;;;;;2.88;2.12;;;;;;;;;;358861;149;857377;-57
2022/04/27 05:22:36;;;;;;;3.74;2.06;;;;;;;;;;359528;147;859667;-57
2022/04/27 05:23:37;;;;;;;5.80;2.25;;;;;;;;;;364582;147;857248;-60
2022/04/27 05:24:38;;;;;;;3.49;1.90;;;;;;;;;;361864;147;857174;-59
2022/04/27 05:25:40;;;;;;;3.49;2.16;;;;;;;;;;363447;147;857177;-57
2022/04/27 05:26:42;;;;;;;4.04;2.12;;;;;;;;;;361699;147;857397;-58
2022/04/27 05:27:43;;;;;;;2.89;1.63;;;;;;;;;;364374;147;858815;-58
2022/04/27 05:32:46;;;;;;;3.21;2.56;;;;;;;;;;360390;147;858901;-59
2022/04/27 05:33:48;;;;;;;4.16;2.48;;;;;;;;;;361784;147;864785;-63
2022/04/27 05:34:49;;;;;;;4.95;2.27;;;;;;;;;;360349;147;858732;-63
2022/04/27 05:35:51;;;;;;;3.53;2.35;;;;;;;;;;362165;147;857274;-63
2022/04/27 05:36:53;;;;;;;4.21;2.23;;;;;;;;;;359935;147;856474;-62
2022/04/27 05:37:54;;;;;;;4.65;2.35;;;;;;;;;;361084;147;865375;-64
2022/04/27 05:38:56;;;;;;;6.68;2.35;;;;;;;;;;348551;147;858624;-62
2022/04/27 05:39:57;;;;;;;2.45;2.09;;;;;;;;;;337908;156;865118;-61
2022/04/27 05:40:59;;;;;;;3.18;1.94;;;;;;;;;;347595;153;857388;-60
2022/04/27 05:42:01;;;;;;;2.51;2.18;;;;;;;;;;349455;153;864486;-61
2022/04/27 05:43:05;;;;;;;2.35;1.91;;;;;;;;;;347970;151;857259;-63
2022/04/27 05:44:09;;;;;;;3.03;2.25;;;;;;;;;;347405;154;864957;-69
2022/04/27 05:45:10;;;;;;;2.70;2.29;;;;;;;;;;349128;152;859890;-60
2022/04/27 05:46:15;;;;;;;2.97;1.71;;;;;;;;;;349848;152;859452;-60
2022/04/27 05:47:16;;;;;;;3.11;2.21;;;;;;;;;;348669;151;864727;-60
2022/04/27 05:48:18;;;;;;;3.51;2.25;;;;;;;;;;346297;153;857189;-59
2022/04/27 05:49:19;;;;;;;2.03;1.81;;;;;;;;;;350119;153;857182;-60
2022/04/27 05:50:21;;;;;;;2.59;1.80;;;;;;;;;;348247;152;857089;-58
2022/04/27 05:51:22;;;;;;;3.61;2.07;;;;;;;;;;351209;152;864527;-57
2022/04/27 05:52:24;;;;;;;2.56;2.25;;;;;;;;;;350664;152;857248;-60
2022/04/27 05:53:26;;;;;;;4.69;2.29;;;;;;;;;;348846;151;857288;-58
2022/04/27 05:54:27;;;;;;;3.06;1.85;;;;;;;;;;350004;152;857758;-58
2022/04/27 05:55:29;;;;;;;2.93;1.77;;;;;;;;;;349070;153;857291;-58
2022/04/27 05:56:30;;;;;;;3.99;2.31;;;;;;;;;;348920;153;857335;-59
2022/04/27 05:57:32;;;;;;;2.54;2.01;;;;;;;;;;348708;153;858826;-57
2022/04/27 05:58:34;;;;;;;2.26;1.99;;;;;;;;;;346839;152;865779;-56
2022/04/27 05:59:35;;;;;;;3.57;1.92;;;;;;;;;;348628;154;859172;-59
2022/04/27 06:00:37;;;;;;;4.09;2.11;;;;;;;;;;348220;152;865288;-57
2022/04/27 06:01:40;;;;;;;2.56;2.19;;;;;;;;;;344416;154;866929;-55
2022/04/27 06:02:45;;;;;;;4.07;1.76;;;;;;;;;;344461;155;864895;-60
2022/04/27 06:03:46;;;;;;;3.15;1.48;;;;;;;;;;344293;154;858369;-56
2022/04/27 06:04:48;;;;;;;2.93;2.06;;;;;;;;;;342531;154;857192;-58
2022/04/27 06:05:49;;;;;;;4.06;2.36;;;;;;;;;;340773;156;859421;-60
2022/04/27 06:06:51;;;;;;;3.82;2.15;;;;;;;;;;337686;158;858117;-59
2022/04/27 06:07:53;;;;;;;2.83;2.21;;;;;;;;;;338789;158;860012;-58
2022/04/27 06:08:54;;;;;;;4.01;1.99;;;;;;;;;;339155;157;859233;-59
2022/04/27 06:09:56;;;;;;;2.19;1.66;;;;;;;;;;339167;158;859066;-59
2022/04/27 06:10:57;;;;;;;3.11;1.58;;;;;;;;;;340165;158;858265;-58
2022/04/27 06:12:00;;;;;;;2.13;1.87;;;;;;;;;;337848;157;857756;-59
2022/04/27 06:13:01;;;;;;;2.34;1.88;;;;;;;;;;338972;158;857324;-59
2022/04/27 06:14:03;;;;;;;2.39;1.74;;;;;;;;;;339622;158;857262;-59
2022/04/27 06:15:05;;;;;;;3.44;1.81;;;;;;;;;;340586;156;857186;-59
2022/04/27 06:16:06;;;;;;;3.84;1.61;;;;;;;;;;338242;156;857226;-62
2022/04/27 06:17:08;;;;;;;2.56;1.85;;;;;;;;;;339266;158;859343;-60
2022/04/27 06:18:09;;;;;;;4.74;2.06;;;;;;;;;;337513;158;857255;-57
2022/04/27 06:19:11;;;;;;;3.35;1.75;;;;;;;;;;336012;158;857137;-55
2022/04/27 06:20:13;;;;;;;2.33;2.01;;;;;;;;;;338225;158;857226;-59